sensor_id;sensor_type;location;lat;lon;timestamp;P1;durP1;ratioP1;P2;durP2;ratioP2
2464;SDS011;1244;54.326;10.074;2022-11-20T00:02:20;0.30;;;0.30;;
2464;SDS011;1244;54.326;10.074;2022-11-20T00:04:45;0.50;;;0.50;;
2464;SDS011;1244;54.326;10.074;2022-11-20T00:07:11;0.40;;;0.40;;
2464;SDS011;1244;54.326;10.074;2022-11-20T00:09:36;0.40;;;0.40;;
2464;SDS011;1244;54.326;10.074;2022-11-20T00:12:01;0.40;;;0.40;;
2464;SDS011;1244;54.326;10.074;2022-11-20T00:14:28;0.50;;;0.50;;
2464;SDS011;1244;54.326;10.074;2022-11-20T00:16:53;0.50;;;0.50;;
2464;SDS011;1244;54.326;10.074;2022-11-20T00:19:19;0.50;;;0.50;;
2464;SDS011;1244;54.326;10.074;2022-11-20T00:21:44;0.40;;;0.40;;
2464;SDS011;1244;54.326;10.074;2022-11-20T00:24:10;0.40;;;0.40;;
2464;SDS011;1244;54.326;10.074;2022-11-20T00:26:35;0.50;;;0.50;;
2464;SDS011;1244;54.326;10.074;2022-11-20T00:29:01;0.37;;;0.37;;
2464;SDS011;1244;54.326;10.074;2022-11-20T00:31:28;0.40;;;0.40;;
2464;SDS011;1244;54.326;10.074;2022-11-20T00:33:54;0.40;;;0.40;;
2464;SDS011;1244;54.326;10.074;2022-11-20T00:36:21;0.50;;;0.50;;
2464;SDS011;1244;54.326;10.074;2022-11-20T00:38:52;0.50;;;0.50;;
2464;SDS011;1244;54.326;10.074;2022-11-20T00:41:18;0.40;;;0.40;;
2464;SDS011;1244;54.326;10.074;2022-11-20T00:43:44;0.60;;;0.60;;
2464;SDS011;1244;54.326;10.074;2022-11-20T00:46:12;0.40;;;0.40;;
2464;SDS011;1244;54.326;10.074;2022-11-20T00:48:42;0.50;;;0.50;;
2464;SDS011;1244;54.326;10.074;2022-11-20T00:51:08;0.40;;;0.40;;
2464;SDS011;1244;54.326;10.074;2022-11-20T00:53:36;0.47;;;0.47;;
2464;SDS011;1244;54.326;10.074;2022-11-20T00:56:05;0.40;;;0.40;;
2464;SDS011;1244;54.326;10.074;2022-11-20T00:58:36;0.40;;;0.40;;
2464;SDS011;1244;54.326;10.074;2022-11-20T01:01:04;0.53;;;0.53;;
2464;SDS011;1244;54.326;10.074;2022-11-20T01:03:32;0.40;;;0.40;;
2464;SDS011;1244;54.326;10.074;2022-11-20T01:06:09;0.60;;;0.60;;
2464;SDS011;1244;54.326;10.074;2022-11-20T01:08:56;0.50;;;0.50;;
2464;SDS011;1244;54.326;10.074;2022-11-20T01:11:27;0.50;;;0.50;;
2464;SDS011;1244;54.326;10.074;2022-11-20T01:13:56;0.40;;;0.40;;
2464;SDS011;1244;54.326;10.074;2022-11-20T01:16:24;0.50;;;0.50;;
2464;SDS011;1244;54.326;10.074;2022-11-20T01:18:53;0.50;;;0.50;;
2464;SDS011;1244;54.326;10.074;2022-11-20T01:21:23;0.47;;;0.47;;
2464;SDS011;1244;54.326;10.074;2022-11-20T01:23:50;0.40;;;0.40;;
2464;SDS011;1244;54.326;10.074;2022-11-20T01:26:18;0.50;;;0.50;;
2464;SDS011;1244;54.326;10.074;2022-11-20T01:28:45;0.50;;;0.50;;
2464;SDS011;1244;54.326;10.074;2022-11-20T01:31:14;0.50;;;0.50;;
2464;SDS011;1244;54.326;10.074;2022-11-20T01:33:45;0.40;;;0.40;;
2464;SDS011;1244;54.326;10.074;2022-11-20T01:36:11;0.50;;;0.50;;
2464;SDS011;1244;54.326;10.074;2022-11-20T01:38:37;0.50;;;0.50;;
2464;SDS011;1244;54.326;10.074;2022-11-20T01:41:03;0.40;;;0.40;;
2464;SDS011;1244;54.326;10.074;2022-11-20T01:43:30;0.50;;;0.50;;
2464;SDS011;1244;54.326;10.074;2022-11-20T01:46:02;0.60;;;0.60;;
2464;SDS011;1244;54.326;10.074;2022-11-20T01:48:42;0.60;;;0.60;;
2464;SDS011;1244;54.326;10.074;2022-11-20T01:54:05;0.40;;;0.40;;
2464;SDS011;1244;54.326;10.074;2022-11-20T01:56:36;0.50;;;0.50;;
2464;SDS011;1244;54.326;10.074;2022-11-20T01:59:04;0.50;;;0.50;;
2464;SDS011;1244;54.326;10.074;2022-11-20T02:01:33;0.50;;;0.50;;
2464;SDS011;1244;54.326;10.074;2022-11-20T02:03:59;0.50;;;0.50;;
2464;SDS011;1244;54.326;10.074;2022-11-20T02:06:26;0.50;;;0.50;;
2464;SDS011;1244;54.326;10.074;2022-11-20T02:09:05;0.50;;;0.50;;
2464;SDS011;1244;54.326;10.074;2022-11-20T02:11:31;0.40;;;0.40;;
2464;SDS011;1244;54.326;10.074;2022-11-20T02:13:57;0.40;;;0.40;;
2464;SDS011;1244;54.326;10.074;2022-11-20T02:16:25;0.30;;;0.30;;
2464;SDS011;1244;54.326;10.074;2022-11-20T02:18:53;0.40;;;0.40;;
2464;SDS011;1244;54.326;10.074;2022-11-20T02:21:28;0.40;;;0.40;;
2464;SDS011;1244;54.326;10.074;2022-11-20T02:24:00;0.50;;;0.50;;
2464;SDS011;1244;54.326;10.074;2022-11-20T02:26:53;0.33;;;0.33;;
2464;SDS011;1244;54.326;10.074;2022-11-20T02:29:25;0.47;;;0.47;;
2464;SDS011;1244;54.326;10.074;2022-11-20T02:31:55;0.50;;;0.50;;
2464;SDS011;1244;54.326;10.074;2022-11-20T02:34:23;0.60;;;0.60;;
2464;SDS011;1244;54.326;10.074;2022-11-20T02:36:50;0.40;;;0.40;;
2464;SDS011;1244;54.326;10.074;2022-11-20T02:39:16;0.40;;;0.40;;
2464;SDS011;1244;54.326;10.074;2022-11-20T02:41:44;0.50;;;0.50;;
2464;SDS011;1244;54.326;10.074;2022-11-20T02:44:09;0.50;;;0.50;;
2464;SDS011;1244;54.326;10.074;2022-11-20T02:46:35;0.50;;;0.50;;
2464;SDS011;1244;54.326;10.074;2022-11-20T02:49:01;0.40;;;0.40;;
2464;SDS011;1244;54.326;10.074;2022-11-20T02:51:28;0.40;;;0.40;;
2464;SDS011;1244;54.326;10.074;2022-11-20T02:53:53;0.40;;;0.40;;
2464;SDS011;1244;54.326;10.074;2022-11-20T02:56:19;0.40;;;0.40;;
2464;SDS011;1244;54.326;10.074;2022-11-20T02:58:44;0.43;;;0.43;;
2464;SDS011;1244;54.326;10.074;2022-11-20T03:01:10;0.40;;;0.40;;
2464;SDS011;1244;54.326;10.074;2022-11-20T03:03:35;0.50;;;0.50;;
2464;SDS011;1244;54.326;10.074;2022-11-20T03:06:01;0.47;;;0.47;;
2464;SDS011;1244;54.326;10.074;2022-11-20T03:08:26;0.50;;;0.50;;
2464;SDS011;1244;54.326;10.074;2022-11-20T03:10:53;0.40;;;0.40;;
2464;SDS011;1244;54.326;10.074;2022-11-20T03:13:18;0.50;;;0.50;;
2464;SDS011;1244;54.326;10.074;2022-11-20T03:15:44;0.50;;;0.50;;
2464;SDS011;1244;54.326;10.074;2022-11-20T03:18:09;0.50;;;0.50;;
2464;SDS011;1244;54.326;10.074;2022-11-20T03:20:35;0.50;;;0.50;;
2464;SDS011;1244;54.326;10.074;2022-11-20T03:23:01;0.40;;;0.40;;
2464;SDS011;1244;54.326;10.074;2022-11-20T03:25:26;0.50;;;0.50;;
2464;SDS011;1244;54.326;10.074;2022-11-20T03:27:52;0.40;;;0.40;;
2464;SDS011;1244;54.326;10.074;2022-11-20T03:30:18;0.50;;;0.50;;
2464;SDS011;1244;54.326;10.074;2022-11-20T03:32:44;0.40;;;0.40;;
2464;SDS011;1244;54.326;10.074;2022-11-20T03:35:10;0.50;;;0.50;;
2464;SDS011;1244;54.326;10.074;2022-11-20T03:37:36;0.50;;;0.50;;
2464;SDS011;1244;54.326;10.074;2022-11-20T03:40:01;0.47;;;0.47;;
2464;SDS011;1244;54.326;10.074;2022-11-20T03:42:27;0.40;;;0.40;;
2464;SDS011;1244;54.326;10.074;2022-11-20T03:45:11;0.50;;;0.50;;
2464;SDS011;1244;54.326;10.074;2022-11-20T03:47:42;0.40;;;0.40;;
2464;SDS011;1244;54.326;10.074;2022-11-20T03:50:09;0.30;;;0.30;;
2464;SDS011;1244;54.326;10.074;2022-11-20T03:52:37;0.50;;;0.50;;
2464;SDS011;1244;54.326;10.074;2022-11-20T03:55:03;0.40;;;0.40;;
2464;SDS011;1244;54.326;10.074;2022-11-20T03:57:29;0.40;;;0.40;;
2464;SDS011;1244;54.326;10.074;2022-11-20T03:59:54;0.50;;;0.50;;
2464;SDS011;1244;54.326;10.074;2022-11-20T04:02:20;0.40;;;0.40;;
2464;SDS011;1244;54.326;10.074;2022-11-20T04:04:45;0.47;;;0.47;;
2464;SDS011;1244;54.326;10.074;2022-11-20T04:07:11;0.50;;;0.50;;
2464;SDS011;1244;54.326;10.074;2022-11-20T04:09:37;0.50;;;0.50;;
2464;SDS011;1244;54.326;10.074;2022-11-20T04:12:03;0.50;;;0.50;;
2464;SDS011;1244;54.326;10.074;2022-11-20T04:14:29;0.43;;;0.43;;
2464;SDS011;1244;54.326;10.074;2022-11-20T04:16:54;0.40;;;0.40;;
2464;SDS011;1244;54.326;10.074;2022-11-20T04:19:20;0.50;;;0.50;;
2464;SDS011;1244;54.326;10.074;2022-11-20T04:21:45;0.50;;;0.50;;
2464;SDS011;1244;54.326;10.074;2022-11-20T04:24:11;0.47;;;0.47;;
2464;SDS011;1244;54.326;10.074;2022-11-20T04:26:36;0.50;;;0.50;;
2464;SDS011;1244;54.326;10.074;2022-11-20T04:29:02;0.40;;;0.40;;
2464;SDS011;1244;54.326;10.074;2022-11-20T04:31:29;0.40;;;0.40;;
2464;SDS011;1244;54.326;10.074;2022-11-20T04:34:00;0.40;;;0.40;;
2464;SDS011;1244;54.326;10.074;2022-11-20T04:36:28;0.50;;;0.50;;
2464;SDS011;1244;54.326;10.074;2022-11-20T04:38:55;0.50;;;0.50;;
2464;SDS011;1244;54.326;10.074;2022-11-20T04:41:23;0.40;;;0.40;;
2464;SDS011;1244;54.326;10.074;2022-11-20T04:43:57;0.50;;;0.50;;
2464;SDS011;1244;54.326;10.074;2022-11-20T04:46:27;0.40;;;0.40;;
2464;SDS011;1244;54.326;10.074;2022-11-20T04:48:53;0.40;;;0.40;;
2464;SDS011;1244;54.326;10.074;2022-11-20T04:51:19;0.60;;;0.60;;
2464;SDS011;1244;54.326;10.074;2022-11-20T04:53:45;0.50;;;0.50;;
2464;SDS011;1244;54.326;10.074;2022-11-20T04:56:11;0.50;;;0.50;;
2464;SDS011;1244;54.326;10.074;2022-11-20T04:58:37;0.40;;;0.40;;
2464;SDS011;1244;54.326;10.074;2022-11-20T05:01:04;0.40;;;0.40;;
2464;SDS011;1244;54.326;10.074;2022-11-20T05:03:35;0.50;;;0.50;;
2464;SDS011;1244;54.326;10.074;2022-11-20T05:06:01;0.50;;;0.50;;
2464;SDS011;1244;54.326;10.074;2022-11-20T05:08:28;0.50;;;0.50;;
2464;SDS011;1244;54.326;10.074;2022-11-20T05:10:58;0.47;;;0.47;;
2464;SDS011;1244;54.326;10.074;2022-11-20T05:13:28;0.60;;;0.60;;
2464;SDS011;1244;54.326;10.074;2022-11-20T05:15:54;0.50;;;0.50;;
2464;SDS011;1244;54.326;10.074;2022-11-20T05:18:19;0.50;;;0.50;;
2464;SDS011;1244;54.326;10.074;2022-11-20T05:20:45;0.50;;;0.50;;
2464;SDS011;1244;54.326;10.074;2022-11-20T05:23:10;0.50;;;0.50;;
2464;SDS011;1244;54.326;10.074;2022-11-20T05:25:36;0.40;;;0.40;;
2464;SDS011;1244;54.326;10.074;2022-11-20T05:28:01;0.47;;;0.47;;
2464;SDS011;1244;54.326;10.074;2022-11-20T05:30:27;0.50;;;0.50;;
2464;SDS011;1244;54.326;10.074;2022-11-20T05:32:52;0.50;;;0.50;;
2464;SDS011;1244;54.326;10.074;2022-11-20T05:35:18;0.50;;;0.50;;
2464;SDS011;1244;54.326;10.074;2022-11-20T05:37:43;0.50;;;0.50;;
2464;SDS011;1244;54.326;10.074;2022-11-20T05:40:09;0.50;;;0.50;;
2464;SDS011;1244;54.326;10.074;2022-11-20T05:42:35;0.50;;;0.50;;
2464;SDS011;1244;54.326;10.074;2022-11-20T05:45:02;0.50;;;0.50;;
2464;SDS011;1244;54.326;10.074;2022-11-20T05:47:31;0.60;;;0.60;;
2464;SDS011;1244;54.326;10.074;2022-11-20T05:49:57;0.43;;;0.43;;
2464;SDS011;1244;54.326;10.074;2022-11-20T05:52:23;0.40;;;0.40;;
2464;SDS011;1244;54.326;10.074;2022-11-20T05:54:48;0.50;;;0.50;;
2464;SDS011;1244;54.326;10.074;2022-11-20T05:57:14;0.50;;;0.50;;
2464;SDS011;1244;54.326;10.074;2022-11-20T05:59:40;0.53;;;0.53;;
2464;SDS011;1244;54.326;10.074;2022-11-20T06:02:05;0.50;;;0.50;;
2464;SDS011;1244;54.326;10.074;2022-11-20T06:04:31;0.50;;;0.50;;
2464;SDS011;1244;54.326;10.074;2022-11-20T06:06:56;0.50;;;0.50;;
2464;SDS011;1244;54.326;10.074;2022-11-20T06:09:22;0.40;;;0.40;;
2464;SDS011;1244;54.326;10.074;2022-11-20T06:11:47;0.50;;;0.50;;
2464;SDS011;1244;54.326;10.074;2022-11-20T06:14:12;0.50;;;0.50;;
2464;SDS011;1244;54.326;10.074;2022-11-20T06:16:38;0.50;;;0.50;;
2464;SDS011;1244;54.326;10.074;2022-11-20T06:19:03;0.50;;;0.50;;
2464;SDS011;1244;54.326;10.074;2022-11-20T06:21:29;0.50;;;0.50;;
2464;SDS011;1244;54.326;10.074;2022-11-20T06:23:54;0.50;;;0.50;;
2464;SDS011;1244;54.326;10.074;2022-11-20T06:26:21;0.50;;;0.50;;
2464;SDS011;1244;54.326;10.074;2022-11-20T06:28:48;0.50;;;0.50;;
2464;SDS011;1244;54.326;10.074;2022-11-20T06:31:15;0.37;;;0.37;;
2464;SDS011;1244;54.326;10.074;2022-11-20T06:33:42;0.47;;;0.47;;
2464;SDS011;1244;54.326;10.074;2022-11-20T06:36:09;0.50;;;0.50;;
2464;SDS011;1244;54.326;10.074;2022-11-20T06:38:37;0.53;;;0.53;;
2464;SDS011;1244;54.326;10.074;2022-11-20T06:41:03;0.50;;;0.50;;
2464;SDS011;1244;54.326;10.074;2022-11-20T06:43:30;0.43;;;0.43;;
2464;SDS011;1244;54.326;10.074;2022-11-20T06:45:56;0.50;;;0.50;;
2464;SDS011;1244;54.326;10.074;2022-11-20T06:48:23;0.47;;;0.47;;
2464;SDS011;1244;54.326;10.074;2022-11-20T06:50:50;0.50;;;0.50;;
2464;SDS011;1244;54.326;10.074;2022-11-20T06:53:16;0.50;;;0.50;;
2464;SDS011;1244;54.326;10.074;2022-11-20T06:55:42;0.50;;;0.50;;
2464;SDS011;1244;54.326;10.074;2022-11-20T06:58:08;0.50;;;0.50;;
2464;SDS011;1244;54.326;10.074;2022-11-20T07:00:34;0.60;;;0.60;;
2464;SDS011;1244;54.326;10.074;2022-11-20T07:03:06;0.40;;;0.40;;
2464;SDS011;1244;54.326;10.074;2022-11-20T07:05:33;0.40;;;0.40;;
2464;SDS011;1244;54.326;10.074;2022-11-20T07:07:59;0.50;;;0.50;;
2464;SDS011;1244;54.326;10.074;2022-11-20T07:10:25;0.50;;;0.50;;
2464;SDS011;1244;54.326;10.074;2022-11-20T07:12:51;0.50;;;0.50;;
2464;SDS011;1244;54.326;10.074;2022-11-20T07:15:18;0.40;;;0.40;;
2464;SDS011;1244;54.326;10.074;2022-11-20T07:17:44;0.50;;;0.50;;
2464;SDS011;1244;54.326;10.074;2022-11-20T07:20:10;0.40;;;0.40;;
2464;SDS011;1244;54.326;10.074;2022-11-20T07:22:35;0.40;;;0.40;;
2464;SDS011;1244;54.326;10.074;2022-11-20T07:25:01;0.50;;;0.50;;
2464;SDS011;1244;54.326;10.074;2022-11-20T07:27:27;0.50;;;0.50;;
2464;SDS011;1244;54.326;10.074;2022-11-20T07:29:52;0.50;;;0.50;;
2464;SDS011;1244;54.326;10.074;2022-11-20T07:32:18;0.50;;;0.50;;
2464;SDS011;1244;54.326;10.074;2022-11-20T07:34:44;0.40;;;0.40;;
2464;SDS011;1244;54.326;10.074;2022-11-20T07:37:09;0.47;;;0.47;;
2464;SDS011;1244;54.326;10.074;2022-11-20T07:39:35;0.50;;;0.50;;
2464;SDS011;1244;54.326;10.074;2022-11-20T07:42:00;0.40;;;0.40;;
2464;SDS011;1244;54.326;10.074;2022-11-20T07:44:26;0.50;;;0.50;;
2464;SDS011;1244;54.326;10.074;2022-11-20T07:46:51;0.40;;;0.40;;
2464;SDS011;1244;54.326;10.074;2022-11-20T07:49:17;0.50;;;0.50;;
2464;SDS011;1244;54.326;10.074;2022-11-20T07:51:42;0.40;;;0.40;;
2464;SDS011;1244;54.326;10.074;2022-11-20T07:54:08;0.40;;;0.40;;
2464;SDS011;1244;54.326;10.074;2022-11-20T07:56:33;0.40;;;0.40;;
2464;SDS011;1244;54.326;10.074;2022-11-20T07:58:59;0.40;;;0.40;;
2464;SDS011;1244;54.326;10.074;2022-11-20T08:01:24;0.50;;;0.50;;
2464;SDS011;1244;54.326;10.074;2022-11-20T08:03:50;0.43;;;0.43;;
2464;SDS011;1244;54.326;10.074;2022-11-20T08:06:15;0.50;;;0.50;;
2464;SDS011;1244;54.326;10.074;2022-11-20T08:08:42;0.50;;;0.50;;
2464;SDS011;1244;54.326;10.074;2022-11-20T08:11:08;0.40;;;0.40;;
2464;SDS011;1244;54.326;10.074;2022-11-20T08:13:51;0.50;;;0.50;;
2464;SDS011;1244;54.326;10.074;2022-11-20T08:16:36;0.50;;;0.50;;
2464;SDS011;1244;54.326;10.074;2022-11-20T08:19:01;0.40;;;0.40;;
2464;SDS011;1244;54.326;10.074;2022-11-20T08:21:27;0.40;;;0.40;;
2464;SDS011;1244;54.326;10.074;2022-11-20T08:23:52;0.40;;;0.40;;
2464;SDS011;1244;54.326;10.074;2022-11-20T08:26:18;0.50;;;0.50;;
2464;SDS011;1244;54.326;10.074;2022-11-20T08:28:43;0.40;;;0.40;;
2464;SDS011;1244;54.326;10.074;2022-11-20T08:31:09;0.50;;;0.50;;
2464;SDS011;1244;54.326;10.074;2022-11-20T08:33:34;0.40;;;0.40;;
2464;SDS011;1244;54.326;10.074;2022-11-20T08:36:01;0.40;;;0.40;;
2464;SDS011;1244;54.326;10.074;2022-11-20T08:38:27;0.40;;;0.40;;
2464;SDS011;1244;54.326;10.074;2022-11-20T08:41:00;0.30;;;0.30;;
2464;SDS011;1244;54.326;10.074;2022-11-20T08:43:46;0.40;;;0.40;;
2464;SDS011;1244;54.326;10.074;2022-11-20T08:46:11;0.40;;;0.40;;
2464;SDS011;1244;54.326;10.074;2022-11-20T08:48:37;0.40;;;0.40;;
2464;SDS011;1244;54.326;10.074;2022-11-20T08:51:03;0.40;;;0.40;;
2464;SDS011;1244;54.326;10.074;2022-11-20T08:53:29;0.43;;;0.43;;
2464;SDS011;1244;54.326;10.074;2022-11-20T08:55:54;0.50;;;0.50;;
2464;SDS011;1244;54.326;10.074;2022-11-20T08:58:21;0.50;;;0.50;;
2464;SDS011;1244;54.326;10.074;2022-11-20T09:00:47;0.40;;;0.40;;
2464;SDS011;1244;54.326;10.074;2022-11-20T09:03:12;0.40;;;0.40;;
2464;SDS011;1244;54.326;10.074;2022-11-20T09:05:38;0.50;;;0.50;;
2464;SDS011;1244;54.326;10.074;2022-11-20T09:08:04;0.50;;;0.50;;
2464;SDS011;1244;54.326;10.074;2022-11-20T09:10:29;0.40;;;0.40;;
2464;SDS011;1244;54.326;10.074;2022-11-20T09:12:55;0.40;;;0.40;;
2464;SDS011;1244;54.326;10.074;2022-11-20T09:15:21;0.50;;;0.50;;
2464;SDS011;1244;54.326;10.074;2022-11-20T09:17:51;0.40;;;0.40;;
2464;SDS011;1244;54.326;10.074;2022-11-20T09:20:21;0.50;;;0.50;;
2464;SDS011;1244;54.326;10.074;2022-11-20T09:22:47;0.50;;;0.50;;
2464;SDS011;1244;54.326;10.074;2022-11-20T09:25:13;0.50;;;0.50;;
2464;SDS011;1244;54.326;10.074;2022-11-20T09:27:38;0.40;;;0.40;;
2464;SDS011;1244;54.326;10.074;2022-11-20T09:30:06;0.50;;;0.50;;
2464;SDS011;1244;54.326;10.074;2022-11-20T09:32:32;0.50;;;0.50;;
2464;SDS011;1244;54.326;10.074;2022-11-20T09:34:57;0.50;;;0.50;;
2464;SDS011;1244;54.326;10.074;2022-11-20T09:37:23;0.40;;;0.40;;
2464;SDS011;1244;54.326;10.074;2022-11-20T09:39:48;0.33;;;0.33;;
2464;SDS011;1244;54.326;10.074;2022-11-20T09:42:17;0.40;;;0.40;;
2464;SDS011;1244;54.326;10.074;2022-11-20T09:45:21;0.50;;;0.50;;
2464;SDS011;1244;54.326;10.074;2022-11-20T09:48:56;0.40;;;0.40;;
2464;SDS011;1244;54.326;10.074;2022-11-20T09:53:59;0.40;;;0.40;;
2464;SDS011;1244;54.326;10.074;2022-11-20T09:56:33;0.50;;;0.50;;
2464;SDS011;1244;54.326;10.074;2022-11-20T09:59:02;0.50;;;0.50;;
2464;SDS011;1244;54.326;10.074;2022-11-20T10:01:31;0.50;;;0.50;;
2464;SDS011;1244;54.326;10.074;2022-11-20T10:04:03;0.50;;;0.50;;
2464;SDS011;1244;54.326;10.074;2022-11-20T10:17:31;0.40;;;0.40;;
2464;SDS011;1244;54.326;10.074;2022-11-20T10:25:43;0.40;;;0.40;;
2464;SDS011;1244;54.326;10.074;2022-11-20T10:28:48;0.40;;;0.40;;
2464;SDS011;1244;54.326;10.074;2022-11-20T10:31:33;0.50;;;0.50;;
2464;SDS011;1244;54.326;10.074;2022-11-20T10:34:03;0.40;;;0.40;;
2464;SDS011;1244;54.326;10.074;2022-11-20T10:36:46;0.40;;;0.40;;
2464;SDS011;1244;54.326;10.074;2022-11-20T10:39:22;0.40;;;0.40;;
2464;SDS011;1244;54.326;10.074;2022-11-20T10:42:08;0.40;;;0.40;;
2464;SDS011;1244;54.326;10.074;2022-11-20T10:44:39;0.40;;;0.40;;
2464;SDS011;1244;54.326;10.074;2022-11-20T10:47:27;0.40;;;0.40;;
2464;SDS011;1244;54.326;10.074;2022-11-20T10:49:56;0.40;;;0.40;;
2464;SDS011;1244;54.326;10.074;2022-11-20T10:52:45;0.30;;;0.30;;
2464;SDS011;1244;54.326;10.074;2022-11-20T10:55:40;0.40;;;0.40;;
2464;SDS011;1244;54.326;10.074;2022-11-20T10:58:14;0.40;;;0.40;;
2464;SDS011;1244;54.326;10.074;2022-11-20T11:01:05;0.40;;;0.40;;
2464;SDS011;1244;54.326;10.074;2022-11-20T11:03:38;0.40;;;0.40;;
2464;SDS011;1244;54.326;10.074;2022-11-20T11:06:07;0.50;;;0.50;;
2464;SDS011;1244;54.326;10.074;2022-11-20T11:08:38;0.40;;;0.40;;
2464;SDS011;1244;54.326;10.074;2022-11-20T11:13:50;0.40;;;0.40;;
2464;SDS011;1244;54.326;10.074;2022-11-20T11:16:19;0.33;;;0.33;;
2464;SDS011;1244;54.326;10.074;2022-11-20T11:18:49;0.40;;;0.40;;
2464;SDS011;1244;54.326;10.074;2022-11-20T11:21:20;0.37;;;0.37;;
2464;SDS011;1244;54.326;10.074;2022-11-20T11:23:48;0.40;;;0.40;;
2464;SDS011;1244;54.326;10.074;2022-11-20T11:26:26;0.30;;;0.30;;
2464;SDS011;1244;54.326;10.074;2022-11-20T11:29:03;0.40;;;0.40;;
2464;SDS011;1244;54.326;10.074;2022-11-20T11:31:33;0.40;;;0.40;;
2464;SDS011;1244;54.326;10.074;2022-11-20T11:34:12;0.30;;;0.30;;
2464;SDS011;1244;54.326;10.074;2022-11-20T11:36:41;0.30;;;0.30;;
2464;SDS011;1244;54.326;10.074;2022-11-20T11:39:17;0.30;;;0.30;;
2464;SDS011;1244;54.326;10.074;2022-11-20T11:41:45;0.23;;;0.23;;
2464;SDS011;1244;54.326;10.074;2022-11-20T11:44:15;0.20;;;0.20;;
2464;SDS011;1244;54.326;10.074;2022-11-20T11:47:11;0.20;;;0.20;;
2464;SDS011;1244;54.326;10.074;2022-11-20T11:50:02;0.20;;;0.20;;
2464;SDS011;1244;54.326;10.074;2022-11-20T11:55:30;0.20;;;0.20;;
2464;SDS011;1244;54.326;10.074;2022-11-20T12:01:15;0.20;;;0.20;;
2464;SDS011;1244;54.326;10.074;2022-11-20T12:03:50;0.20;;;0.20;;
2464;SDS011;1244;54.326;10.074;2022-11-20T12:06:25;0.10;;;0.10;;
2464;SDS011;1244;54.326;10.074;2022-11-20T12:14:17;0.20;;;0.20;;
2464;SDS011;1244;54.326;10.074;2022-11-20T12:17:04;0.20;;;0.20;;
2464;SDS011;1244;54.326;10.074;2022-11-20T12:19:30;0.20;;;0.20;;
2464;SDS011;1244;54.326;10.074;2022-11-20T12:30:08;0.30;;;0.30;;
2464;SDS011;1244;54.326;10.074;2022-11-20T12:32:58;0.30;;;0.30;;
2464;SDS011;1244;54.326;10.074;2022-11-20T12:38:36;0.30;;;0.30;;
2464;SDS011;1244;54.326;10.074;2022-11-20T12:45:41;0.20;;;0.20;;
2464;SDS011;1244;54.326;10.074;2022-11-20T12:53:08;0.10;;;0.10;;
2464;SDS011;1244;54.326;10.074;2022-11-20T12:55:47;0.10;;;0.10;;
2464;SDS011;1244;54.326;10.074;2022-11-20T13:01:07;0.10;;;0.10;;
2464;SDS011;1244;54.326;10.074;2022-11-20T13:06:49;0.10;;;0.10;;
2464;SDS011;1244;54.326;10.074;2022-11-20T13:09:16;0.10;;;0.10;;
2464;SDS011;1244;54.326;10.074;2022-11-20T13:11:48;0.10;;;0.10;;
2464;SDS011;1244;54.326;10.074;2022-11-20T13:14:35;0.10;;;0.10;;
2464;SDS011;1244;54.326;10.074;2022-11-20T13:19:38;0.10;;;0.10;;
2464;SDS011;1244;54.326;10.074;2022-11-20T13:22:04;0.10;;;0.10;;
2464;SDS011;1244;54.326;10.074;2022-11-20T13:24:30;0.10;;;0.10;;
2464;SDS011;1244;54.326;10.074;2022-11-20T13:29:37;0.10;;;0.10;;
2464;SDS011;1244;54.326;10.074;2022-11-20T13:32:14;0.10;;;0.10;;
2464;SDS011;1244;54.326;10.074;2022-11-20T13:34:55;0.10;;;0.10;;
2464;SDS011;1244;54.326;10.074;2022-11-20T13:40:11;0.10;;;0.10;;
2464;SDS011;1244;54.326;10.074;2022-11-20T13:43:19;0.10;;;0.10;;
2464;SDS011;1244;54.326;10.074;2022-11-20T13:46:07;0.10;;;0.10;;
2464;SDS011;1244;54.326;10.074;2022-11-20T13:48:34;0.10;;;0.10;;
2464;SDS011;1244;54.326;10.074;2022-11-20T13:54:14;0.10;;;0.10;;
2464;SDS011;1244;54.326;10.074;2022-11-20T13:57:07;0.10;;;0.10;;
2464;SDS011;1244;54.326;10.074;2022-11-20T14:05:50;0.10;;;0.10;;
2464;SDS011;1244;54.326;10.074;2022-11-20T14:08:28;0.10;;;0.10;;
2464;SDS011;1244;54.326;10.074;2022-11-20T14:11:13;0.10;;;0.10;;
2464;SDS011;1244;54.326;10.074;2022-11-20T14:14:18;0.10;;;0.10;;
2464;SDS011;1244;54.326;10.074;2022-11-20T14:16:41;0.10;;;0.10;;
2464;SDS011;1244;54.326;10.074;2022-11-20T14:21:46;0.20;;;0.20;;
2464;SDS011;1244;54.326;10.074;2022-11-20T14:24:13;0.20;;;0.20;;
2464;SDS011;1244;54.326;10.074;2022-11-20T14:26:43;0.20;;;0.20;;
2464;SDS011;1244;54.326;10.074;2022-11-20T14:29:12;0.30;;;0.30;;
2464;SDS011;1244;54.326;10.074;2022-11-20T14:31:42;0.30;;;0.30;;
2464;SDS011;1244;54.326;10.074;2022-11-20T14:34:18;0.30;;;0.30;;
2464;SDS011;1244;54.326;10.074;2022-11-20T14:36:46;0.30;;;0.30;;
2464;SDS011;1244;54.326;10.074;2022-11-20T14:39:12;0.40;;;0.40;;
2464;SDS011;1244;54.326;10.074;2022-11-20T14:41:52;0.40;;;0.40;;
2464;SDS011;1244;54.326;10.074;2022-11-20T14:44:20;0.40;;;0.40;;
2464;SDS011;1244;54.326;10.074;2022-11-20T14:46:57;0.40;;;0.40;;
2464;SDS011;1244;54.326;10.074;2022-11-20T14:49:25;0.40;;;0.40;;
2464;SDS011;1244;54.326;10.074;2022-11-20T14:52:01;0.50;;;0.50;;
2464;SDS011;1244;54.326;10.074;2022-11-20T14:54:46;0.50;;;0.50;;
2464;SDS011;1244;54.326;10.074;2022-11-20T14:57:23;0.50;;;0.50;;
2464;SDS011;1244;54.326;10.074;2022-11-20T14:59:49;0.40;;;0.40;;
2464;SDS011;1244;54.326;10.074;2022-11-20T15:02:15;0.50;;;0.50;;
2464;SDS011;1244;54.326;10.074;2022-11-20T15:04:48;0.40;;;0.40;;
2464;SDS011;1244;54.326;10.074;2022-11-20T15:07:28;0.40;;;0.40;;
2464;SDS011;1244;54.326;10.074;2022-11-20T15:10:08;0.40;;;0.40;;
2464;SDS011;1244;54.326;10.074;2022-11-20T15:12:55;0.50;;;0.50;;
2464;SDS011;1244;54.326;10.074;2022-11-20T15:15:26;0.50;;;0.50;;
2464;SDS011;1244;54.326;10.074;2022-11-20T15:18:18;0.50;;;0.50;;
2464;SDS011;1244;54.326;10.074;2022-11-20T15:20:46;0.50;;;0.50;;
2464;SDS011;1244;54.326;10.074;2022-11-20T15:23:13;0.40;;;0.40;;
2464;SDS011;1244;54.326;10.074;2022-11-20T15:25:40;0.50;;;0.50;;
2464;SDS011;1244;54.326;10.074;2022-11-20T15:28:17;0.40;;;0.40;;
2464;SDS011;1244;54.326;10.074;2022-11-20T15:30:43;0.43;;;0.43;;
2464;SDS011;1244;54.326;10.074;2022-11-20T15:33:10;0.40;;;0.40;;
2464;SDS011;1244;54.326;10.074;2022-11-20T15:35:36;0.50;;;0.50;;
2464;SDS011;1244;54.326;10.074;2022-11-20T15:38:02;0.50;;;0.50;;
2464;SDS011;1244;54.326;10.074;2022-11-20T15:40:28;0.50;;;0.50;;
2464;SDS011;1244;54.326;10.074;2022-11-20T15:42:54;0.40;;;0.40;;
2464;SDS011;1244;54.326;10.074;2022-11-20T15:45:42;0.50;;;0.50;;
2464;SDS011;1244;54.326;10.074;2022-11-20T15:48:10;0.50;;;0.50;;
2464;SDS011;1244;54.326;10.074;2022-11-20T15:50:43;0.50;;;0.50;;
2464;SDS011;1244;54.326;10.074;2022-11-20T15:53:15;0.50;;;0.50;;
2464;SDS011;1244;54.326;10.074;2022-11-20T15:55:41;0.43;;;0.43;;
2464;SDS011;1244;54.326;10.074;2022-11-20T15:58:06;0.50;;;0.50;;
2464;SDS011;1244;54.326;10.074;2022-11-20T16:00:32;0.50;;;0.50;;
2464;SDS011;1244;54.326;10.074;2022-11-20T16:02:58;0.60;;;0.60;;
2464;SDS011;1244;54.326;10.074;2022-11-20T16:05:23;0.40;;;0.40;;
2464;SDS011;1244;54.326;10.074;2022-11-20T16:07:49;0.50;;;0.50;;
2464;SDS011;1244;54.326;10.074;2022-11-20T16:10:16;0.40;;;0.40;;
2464;SDS011;1244;54.326;10.074;2022-11-20T16:12:41;0.40;;;0.40;;
2464;SDS011;1244;54.326;10.074;2022-11-20T16:15:25;0.40;;;0.40;;
2464;SDS011;1244;54.326;10.074;2022-11-20T16:18:10;0.50;;;0.50;;
2464;SDS011;1244;54.326;10.074;2022-11-20T16:20:36;0.50;;;0.50;;
2464;SDS011;1244;54.326;10.074;2022-11-20T16:23:02;0.50;;;0.50;;
2464;SDS011;1244;54.326;10.074;2022-11-20T16:25:28;0.40;;;0.40;;
2464;SDS011;1244;54.326;10.074;2022-11-20T16:27:54;0.50;;;0.50;;
2464;SDS011;1244;54.326;10.074;2022-11-20T16:30:19;0.50;;;0.50;;
2464;SDS011;1244;54.326;10.074;2022-11-20T16:32:45;0.50;;;0.50;;
2464;SDS011;1244;54.326;10.074;2022-11-20T16:35:10;0.50;;;0.50;;
2464;SDS011;1244;54.326;10.074;2022-11-20T16:37:36;0.60;;;0.60;;
2464;SDS011;1244;54.326;10.074;2022-11-20T16:40:01;0.50;;;0.50;;